sensor_id;sensor_type;location;lat;lon;timestamp;pressure;altitude;pressure_sealevel;temperature;humidity
829;BME280;396;52.558;13.188;2022-08-25T00:01:52;101601.75;;;20.61;100.00
829;BME280;396;52.558;13.188;2022-08-25T00:04:20;101598.19;;;20.61;100.00
829;BME280;396;52.558;13.188;2022-08-25T00:06:49;101597.75;;;20.59;100.00
829;BME280;396;52.558;13.188;2022-08-25T00:09:20;101604.38;;;20.58;100.00
829;BME280;396;52.558;13.188;2022-08-25T00:11:47;101601.97;;;20.56;100.00
829;BME280;396;52.558;13.188;2022-08-25T00:14:17;101602.34;;;20.55;100.00
829;BME280;396;52.558;13.188;2022-08-25T00:16:44;101597.94;;;20.54;100.00
829;BME280;396;52.558;13.188;2022-08-25T00:19:14;101604.97;;;20.51;100.00
829;BME280;396;52.558;13.188;2022-08-25T00:21:42;101599.81;;;20.50;100.00
829;BME280;396;52.558;13.188;2022-08-25T00:24:11;101599.66;;;20.46;100.00
829;BME280;396;52.558;13.188;2022-08-25T00:26:42;101598.97;;;20.49;100.00
829;BME280;396;52.558;13.188;2022-08-25T00:29:10;101600.47;;;20.47;100.00
829;BME280;396;52.558;13.188;2022-08-25T00:31:37;101594.03;;;20.42;100.00
829;BME280;396;52.558;13.188;2022-08-25T00:34:05;101600.34;;;20.43;100.00
829;BME280;396;52.558;13.188;2022-08-25T00:36:33;101594.72;;;20.39;100.00
829;BME280;396;52.558;13.188;2022-08-25T00:38:59;101591.97;;;20.39;100.00
829;BME280;396;52.558;13.188;2022-08-25T00:41:27;101596.31;;;20.40;100.00
829;BME280;396;52.558;13.188;2022-08-25T00:43:56;101586.44;;;20.39;100.00
829;BME280;396;52.558;13.188;2022-08-25T00:46:28;101586.00;;;20.37;100.00
829;BME280;396;52.558;13.188;2022-08-25T00:49:00;101576.84;;;20.33;100.00
829;BME280;396;52.558;13.188;2022-08-25T00:51:32;101583.00;;;20.30;100.00
829;BME280;396;52.558;13.188;2022-08-25T00:54:02;101570.28;;;20.26;100.00
829;BME280;396;52.558;13.188;2022-08-25T00:56:31;101576.13;;;20.24;100.00
829;BME280;396;52.558;13.188;2022-08-25T00:58:59;101574.84;;;20.22;100.00
829;BME280;396;52.558;13.188;2022-08-25T01:01:27;101580.38;;;20.22;100.00
829;BME280;396;52.558;13.188;2022-08-25T01:03:55;101583.47;;;20.20;100.00
829;BME280;396;52.558;13.188;2022-08-25T01:06:22;101583.47;;;20.20;100.00
829;BME280;396;52.558;13.188;2022-08-25T01:08:49;101592.53;;;20.21;100.00
829;BME280;396;52.558;13.188;2022-08-25T01:11:17;101591.25;;;20.18;100.00
829;BME280;396;52.558;13.188;2022-08-25T01:13:48;101581.75;;;20.15;100.00
829;BME280;396;52.558;13.188;2022-08-25T01:16:16;101586.44;;;20.15;100.00
829;BME280;396;52.558;13.188;2022-08-25T01:18:48;101595.38;;;20.12;100.00
829;BME280;396;52.558;13.188;2022-08-25T01:21:19;101594.91;;;20.10;100.00
829;BME280;396;52.558;13.188;2022-08-25T01:23:48;101597.19;;;20.08;100.00
829;BME280;396;52.558;13.188;2022-08-25T01:26:16;101590.75;;;20.04;100.00
829;BME280;396;52.558;13.188;2022-08-25T01:28:47;101591.91;;;20.03;100.00
829;BME280;396;52.558;13.188;2022-08-25T01:31:34;101598.78;;;19.97;100.00
829;BME280;396;52.558;13.188;2022-08-25T01:34:02;101587.66;;;19.93;100.00
829;BME280;396;52.558;13.188;2022-08-25T01:36:30;101593.97;;;19.94;100.00
829;BME280;396;52.558;13.188;2022-08-25T01:38:56;101593.47;;;19.91;100.00
829;BME280;396;52.558;13.188;2022-08-25T01:41:29;101586.59;;;19.85;100.00
829;BME280;396;52.558;13.188;2022-08-25T01:44:00;101586.16;;;19.83;100.00
829;BME280;396;52.558;13.188;2022-08-25T01:46:27;101589.34;;;19.85;100.00
829;BME280;396;52.558;13.188;2022-08-25T01:48:53;101583.84;;;19.85;100.00
829;BME280;396;52.558;13.188;2022-08-25T01:51:23;101585.44;;;19.86;100.00
829;BME280;396;52.558;13.188;2022-08-25T01:53:51;101587.03;;;19.87;100.00
829;BME280;396;52.558;13.188;2022-08-25T01:56:18;101587.03;;;19.87;100.00
829;BME280;396;52.558;13.188;2022-08-25T01:58:46;101582.25;;;19.84;100.00
829;BME280;396;52.558;13.188;2022-08-25T02:01:16;101578.56;;;19.80;100.00
829;BME280;396;52.558;13.188;2022-08-25T02:03:45;101578.88;;;19.79;100.00
829;BME280;396;52.558;13.188;2022-08-25T02:06:13;101583.59;;;19.78;100.00
829;BME280;396;52.558;13.188;2022-08-25T02:08:40;101578.09;;;19.78;100.00
829;BME280;396;52.558;13.188;2022-08-25T02:11:11;101578.78;;;19.75;100.00
829;BME280;396;52.558;13.188;2022-08-25T02:13:38;101572.34;;;19.71;100.00
829;BME280;396;52.558;13.188;2022-08-25T02:16:07;101567.19;;;19.70;100.00
829;BME280;396;52.558;13.188;2022-08-25T02:18:35;101573.69;;;19.65;100.00
829;BME280;396;52.558;13.188;2022-08-25T02:21:01;101568.19;;;19.65;100.00
829;BME280;396;52.558;13.188;2022-08-25T02:23:28;101565.00;;;19.63;100.00
829;BME280;396;52.558;13.188;2022-08-25T02:25:54;101561.63;;;19.57;100.00
829;BME280;396;52.558;13.188;2022-08-25T02:28:24;101561.28;;;19.59;100.00
829;BME280;396;52.558;13.188;2022-08-25T02:30:50;101560.97;;;19.60;100.00
829;BME280;396;52.558;13.188;2022-08-25T02:33:18;101556.94;;;19.58;100.00
829;BME280;396;52.558;13.188;2022-08-25T02:35:44;101560.00;;;19.56;100.00
829;BME280;396;52.558;13.188;2022-08-25T02:38:11;101562.28;;;19.54;100.00
829;BME280;396;52.558;13.188;2022-08-25T02:40:37;101561.50;;;19.54;100.00
829;BME280;396;52.558;13.188;2022-08-25T02:43:04;101559.53;;;19.54;100.00
829;BME280;396;52.558;13.188;2022-08-25T02:45:32;101563.09;;;19.55;100.00
829;BME280;396;52.558;13.188;2022-08-25T02:47:58;101561.94;;;19.56;100.00
829;BME280;396;52.558;13.188;2022-08-25T02:50:25;101554.41;;;19.53;100.00
829;BME280;396;52.558;13.188;2022-08-25T02:52:51;101552.09;;;19.55;100.00
829;BME280;396;52.558;13.188;2022-08-25T02:55:19;101555.50;;;19.52;100.00
829;BME280;396;52.558;13.188;2022-08-25T02:57:46;101549.56;;;19.50;100.00
829;BME280;396;52.558;13.188;2022-08-25T03:00:15;101546.34;;;19.48;100.00
829;BME280;396;52.558;13.188;2022-08-25T03:02:43;101543.13;;;19.46;100.00
829;BME280;396;52.558;13.188;2022-08-25T03:05:12;101539.59;;;19.45;100.00
829;BME280;396;52.558;13.188;2022-08-25T03:07:39;101540.59;;;19.40;100.00
829;BME280;396;52.558;13.188;2022-08-25T03:10:08;101532.72;;;19.39;100.00
829;BME280;396;52.558;13.188;2022-08-25T03:12:36;101528.19;;;19.34;100.00
829;BME280;396;52.558;13.188;2022-08-25T03:15:06;101532.44;;;19.32;100.00
829;BME280;396;52.558;13.188;2022-08-25T03:17:33;101526.16;;;19.31;100.00
829;BME280;396;52.558;13.188;2022-08-25T03:20:01;101529.56;;;19.28;100.00
829;BME280;396;52.558;13.188;2022-08-25T03:22:28;101524.72;;;19.25;100.00
829;BME280;396;52.558;13.188;2022-08-25T03:24:55;101522.66;;;19.22;100.00
829;BME280;396;52.558;13.188;2022-08-25T03:27:41;101526.53;;;19.21;100.00
829;BME280;396;52.558;13.188;2022-08-25T03:30:08;101522.66;;;19.22;100.00
829;BME280;396;52.558;13.188;2022-08-25T03:32:35;101520.38;;;19.24;100.00
829;BME280;396;52.558;13.188;2022-08-25T03:35:05;101524.94;;;19.20;100.00
829;BME280;396;52.558;13.188;2022-08-25T03:37:31;101517.03;;;19.19;100.00
829;BME280;396;52.558;13.188;2022-08-25T03:39:58;101519.44;;;19.20;100.00
829;BME280;396;52.558;13.188;2022-08-25T03:42:25;101515.75;;;19.16;100.00
829;BME280;396;52.558;13.188;2022-08-25T03:44:51;101515.75;;;19.16;100.00
829;BME280;396;52.558;13.188;2022-08-25T03:47:18;101509.16;;;19.17;100.00
829;BME280;396;52.558;13.188;2022-08-25T03:49:45;101504.66;;;19.12;100.00
829;BME280;396;52.558;13.188;2022-08-25T03:52:13;101515.31;;;19.14;100.00
829;BME280;396;52.558;13.188;2022-08-25T03:54:43;101519.78;;;19.19;100.00
829;BME280;396;52.558;13.188;2022-08-25T03:57:10;101520.38;;;19.24;100.00
829;BME280;396;52.558;13.188;2022-08-25T03:59:36;101531.16;;;19.29;100.00
829;BME280;396;52.558;13.188;2022-08-25T04:02:03;101523.19;;;19.36;100.00
829;BME280;396;52.558;13.188;2022-08-25T04:04:30;101533.03;;;19.37;100.00
829;BME280;396;52.558;13.188;2022-08-25T04:06:56;101530.03;;;19.30;100.00
829;BME280;396;52.558;13.188;2022-08-25T04:09:25;101526.38;;;19.38;100.00
829;BME280;396;52.558;13.188;2022-08-25T04:11:51;101532.00;;;19.42;100.00
829;BME280;396;52.558;13.188;2022-08-25T04:14:19;101533.97;;;19.41;100.00
829;BME280;396;52.558;13.188;2022-08-25T04:16:46;101531.34;;;19.45;100.00
829;BME280;396;52.558;13.188;2022-08-25T04:19:13;101528.25;;;19.47;100.00
829;BME280;396;52.558;13.188;2022-08-25T04:21:40;101531.47;;;19.49;100.00
829;BME280;396;52.558;13.188;2022-08-25T04:24:09;101535.16;;;19.53;100.00
829;BME280;396;52.558;13.188;2022-08-25T04:26:39;101544.34;;;19.57;100.00
829;BME280;396;52.558;13.188;2022-08-25T04:29:07;101541.59;;;19.57;100.00
829;BME280;396;52.558;13.188;2022-08-25T04:31:37;101544.16;;;19.62;100.00
829;BME280;396;52.558;13.188;2022-08-25T04:34:04;101547.00;;;19.65;100.00
829;BME280;396;52.558;13.188;2022-08-25T04:36:32;101544.59;;;19.64;100.00
829;BME280;396;52.558;13.188;2022-08-25T04:38:59;101538.44;;;19.67;100.00
829;BME280;396;52.558;13.188;2022-08-25T04:41:26;101540.69;;;19.65;100.00
829;BME280;396;52.558;13.188;2022-08-25T04:43:55;101540.03;;;19.68;100.00
829;BME280;396;52.558;13.188;2022-08-25T04:46:24;101548.63;;;19.67;100.00
829;BME280;396;52.558;13.188;2022-08-25T04:48:53;101545.88;;;19.67;100.00
829;BME280;396;52.558;13.188;2022-08-25T04:51:23;101545.53;;;19.68;100.00
829;BME280;396;52.558;13.188;2022-08-25T04:53:52;101551.03;;;19.68;100.00
829;BME280;396;52.558;13.188;2022-08-25T04:56:21;101543.94;;;19.67;100.00
829;BME280;396;52.558;13.188;2022-08-25T04:58:49;101536.84;;;19.66;100.00
829;BME280;396;52.558;13.188;2022-08-25T05:01:19;101537.63;;;19.67;100.00
829;BME280;396;52.558;13.188;2022-08-25T05:03:50;101538.56;;;19.71;100.00
829;BME280;396;52.558;13.188;2022-08-25T05:06:17;101538.31;;;19.63;100.00
829;BME280;396;52.558;13.188;2022-08-25T05:08:43;101548.63;;;19.67;100.00
829;BME280;396;52.558;13.188;2022-08-25T05:11:12;101546.59;;;19.76;100.00
829;BME280;396;52.558;13.188;2022-08-25T05:13:41;101543.50;;;19.77;100.00
829;BME280;396;52.558;13.188;2022-08-25T05:16:08;101542.47;;;19.82;100.00
829;BME280;396;52.558;13.188;2022-08-25T05:18:36;101546.28;;;19.89;100.00
829;BME280;396;52.558;13.188;2022-08-25T05:21:07;101548.34;;;19.93;100.00
829;BME280;396;52.558;13.188;2022-08-25T05:23:34;101547.53;;;19.92;100.00
829;BME280;396;52.558;13.188;2022-08-25T05:26:03;101548.00;;;19.94;100.00
829;BME280;396;52.558;13.188;2022-08-25T05:28:30;101544.91;;;19.96;100.00
829;BME280;396;52.558;13.188;2022-08-25T05:30:58;101545.03;;;19.99;100.00
829;BME280;396;52.558;13.188;2022-08-25T05:33:25;101556.03;;;19.99;100.00
829;BME280;396;52.558;13.188;2022-08-25T05:35:53;101557.75;;;20.04;100.00
829;BME280;396;52.558;13.188;2022-08-25T05:38:20;101559.13;;;19.98;100.00
829;BME280;396;52.558;13.188;2022-08-25T05:40:51;101564.06;;;20.04;100.00
829;BME280;396;52.558;13.188;2022-08-25T05:43:17;101560.28;;;20.09;100.00
829;BME280;396;52.558;13.188;2022-08-25T05:45:44;101556.50;;;20.13;100.00
829;BME280;396;52.558;13.188;2022-08-25T05:48:11;101562.13;;;20.17;100.00
829;BME280;396;52.558;13.188;2022-08-25T05:50:38;101556.28;;;20.19;100.00
829;BME280;396;52.558;13.188;2022-08-25T05:53:05;101561.22;;;20.13;100.00
829;BME280;396;52.558;13.188;2022-08-25T05:55:32;101555.38;;;20.14;100.00
829;BME280;396;52.558;13.188;2022-08-25T05:57:58;101559.03;;;20.19;100.00
829;BME280;396;52.558;13.188;2022-08-25T06:00:25;101559.28;;;20.26;100.00
829;BME280;396;52.558;13.188;2022-08-25T06:02:51;101569.59;;;20.29;100.00
829;BME280;396;52.558;13.188;2022-08-25T06:05:18;101567.78;;;20.33;100.00
829;BME280;396;52.558;13.188;2022-08-25T06:07:47;101571.44;;;20.37;100.00
829;BME280;396;52.558;13.188;2022-08-25T06:10:16;101567.66;;;20.41;100.00
829;BME280;396;52.558;13.188;2022-08-25T06:12:45;101567.53;;;20.38;100.00
829;BME280;396;52.558;13.188;2022-08-25T06:15:13;101563.75;;;20.42;100.00
829;BME280;396;52.558;13.188;2022-08-25T06:17:40;101566.31;;;20.48;100.00
829;BME280;396;52.558;13.188;2022-08-25T06:20:09;101570.44;;;20.54;100.00
829;BME280;396;52.558;13.188;2022-08-25T06:22:36;101566.31;;;20.60;100.00
829;BME280;396;52.558;13.188;2022-08-25T06:25:05;101570.09;;;20.68;100.00
829;BME280;396;52.558;13.188;2022-08-25T06:27:33;101570.97;;;20.72;100.00
829;BME280;396;52.558;13.188;2022-08-25T06:30:00;101572.50;;;20.69;100.00
829;BME280;396;52.558;13.188;2022-08-25T06:32:30;101563.75;;;20.79;100.00
829;BME280;396;52.558;13.188;2022-08-25T06:34:56;101563.31;;;20.77;100.00
829;BME280;396;52.558;13.188;2022-08-25T06:37:23;101572.38;;;20.78;100.00
829;BME280;396;52.558;13.188;2022-08-25T06:39:49;101585.22;;;20.86;100.00
829;BME280;396;52.558;13.188;2022-08-25T06:42:16;101579.59;;;20.95;100.00
829;BME280;396;52.558;13.188;2022-08-25T06:44:44;101579.66;;;20.98;100.00
829;BME280;396;52.558;13.188;2022-08-25T06:47:11;101585.53;;;21.09;100.00
829;BME280;396;52.558;13.188;2022-08-25T06:49:39;101577.69;;;21.11;100.00
829;BME280;396;52.558;13.188;2022-08-25T06:52:07;101578.16;;;21.13;100.00
829;BME280;396;52.558;13.188;2022-08-25T06:54:34;101581.59;;;21.10;100.00
829;BME280;396;52.558;13.188;2022-08-25T06:57:01;101579.31;;;21.12;100.00
829;BME280;396;52.558;13.188;2022-08-25T06:59:28;101582.41;;;21.10;100.00
829;BME280;396;52.558;13.188;2022-08-25T07:01:56;101589.44;;;21.08;100.00
829;BME280;396;52.558;13.188;2022-08-25T07:04:22;101581.59;;;21.10;100.00
829;BME280;396;52.558;13.188;2022-08-25T07:06:48;101581.72;;;21.13;100.00
829;BME280;396;52.558;13.188;2022-08-25T07:09:16;101586.19;;;21.18;100.00
829;BME280;396;52.558;13.188;2022-08-25T07:11:43;101585.50;;;21.21;100.00
829;BME280;396;52.558;13.188;2022-08-25T07:14:11;101579.25;;;21.24;100.00
829;BME280;396;52.558;13.188;2022-08-25T07:16:39;101571.09;;;21.28;100.00
829;BME280;396;52.558;13.188;2022-08-25T07:19:08;101570.09;;;21.32;100.00
829;BME280;396;52.558;13.188;2022-08-25T07:21:37;101574.44;;;21.33;100.00
829;BME280;396;52.558;13.188;2022-08-25T07:24:05;101577.19;;;21.33;100.00
829;BME280;396;52.558;13.188;2022-08-25T07:26:33;101568.34;;;21.40;100.00
829;BME280;396;52.558;13.188;2022-08-25T07:29:00;101572.69;;;21.41;100.00
829;BME280;396;52.558;13.188;2022-08-25T07:31:27;101576.47;;;21.49;100.00
829;BME280;396;52.558;13.188;2022-08-25T07:33:54;101567.25;;;21.57;100.00
829;BME280;396;52.558;13.188;2022-08-25T07:36:39;101567.53;;;21.67;100.00
829;BME280;396;52.558;13.188;2022-08-25T07:39:06;101562.75;;;21.80;100.00
829;BME280;396;52.558;13.188;2022-08-25T07:41:36;101555.09;;;21.89;100.00
829;BME280;396;52.558;13.188;2022-08-25T07:44:03;101558.06;;;21.97;100.00
829;BME280;396;52.558;13.188;2022-08-25T07:46:30;101565.56;;;22.12;100.00
829;BME280;396;52.558;13.188;2022-08-25T07:48:56;101559.16;;;22.24;100.00
829;BME280;396;52.558;13.188;2022-08-25T07:51:23;101567.53;;;22.27;100.00
829;BME280;396;52.558;13.188;2022-08-25T07:53:51;101566.91;;;22.34;100.00
829;BME280;396;52.558;13.188;2022-08-25T07:56:17;101563.06;;;22.38;100.00
829;BME280;396;52.558;13.188;2022-08-25T07:58:44;101563.34;;;22.33;100.00
829;BME280;396;52.558;13.188;2022-08-25T08:01:13;101555.25;;;22.40;100.00
829;BME280;396;52.558;13.188;2022-08-25T08:03:39;101561.84;;;22.36;100.00
829;BME280;396;52.558;13.188;2022-08-25T08:06:06;101561.47;;;22.37;100.00
829;BME280;396;52.558;13.188;2022-08-25T08:08:35;101561.47;;;22.37;100.00
829;BME280;396;52.558;13.188;2022-08-25T08:11:03;101557.81;;;22.33;100.00
829;BME280;396;52.558;13.188;2022-08-25T08:13:31;101562.69;;;22.56;100.00
829;BME280;396;52.558;13.188;2022-08-25T08:15:57;101565.34;;;22.68;100.00
829;BME280;396;52.558;13.188;2022-08-25T08:18:24;101555.50;;;22.86;100.00
829;BME280;396;52.558;13.188;2022-08-25T08:20:50;101559.84;;;23.03;100.00
829;BME280;396;52.558;13.188;2022-08-25T08:23:17;101552.63;;;23.18;100.00
829;BME280;396;52.558;13.188;2022-08-25T08:25:43;101560.34;;;23.28;98.96
829;BME280;396;52.558;13.188;2022-08-25T08:28:11;101557.50;;;23.44;98.47
829;BME280;396;52.558;13.188;2022-08-25T08:30:37;101544.94;;;23.47;97.42
829;BME280;396;52.558;13.188;2022-08-25T08:33:04;101548.50;;;23.47;97.10
829;BME280;396;52.558;13.188;2022-08-25T08:35:31;101545.81;;;23.51;96.16
829;BME280;396;52.558;13.188;2022-08-25T08:37:57;101537.94;;;23.53;96.64
829;BME280;396;52.558;13.188;2022-08-25T08:40:24;101542.53;;;23.64;96.83
829;BME280;396;52.558;13.188;2022-08-25T08:42:58;101539.53;;;23.73;96.36
829;BME280;396;52.558;13.188;2022-08-25T08:45:32;101540.13;;;23.86;95.78
829;BME280;396;52.558;13.188;2022-08-25T08:50:59;101536.09;;;24.03;94.57
829;BME280;396;52.558;13.188;2022-08-25T08:53:36;101536.16;;;24.06;93.27
829;BME280;396;52.558;13.188;2022-08-25T08:56:08;101536.59;;;24.08;94.05
829;BME280;396;52.558;13.188;2022-08-25T08:58:40;101539.47;;;24.15;93.97
829;BME280;396;52.558;13.188;2022-08-25T09:01:14;101545.47;;;24.21;93.30
829;BME280;396;52.558;13.188;2022-08-25T09:03:43;101534.66;;;24.35;93.50
829;BME280;396;52.558;13.188;2022-08-25T09:06:17;101541.09;;;24.43;92.64
829;BME280;396;52.558;13.188;2022-08-25T09:08:46;101528.75;;;24.63;93.20
829;BME280;396;52.558;13.188;2022-08-25T09:11:22;101526.44;;;24.69;91.50
829;BME280;396;52.558;13.188;2022-08-25T09:14:06;101526.50;;;24.73;90.53
829;BME280;396;52.558;13.188;2022-08-25T09:16:39;101525.91;;;24.86;90.01
829;BME280;396;52.558;13.188;2022-08-25T09:19:42;101521.19;;;24.90;90.13
829;BME280;396;52.558;13.188;2022-08-25T09:22:20;101522.94;;;25.02;89.62
829;BME280;396;52.558;13.188;2022-08-25T09:24:55;101523.34;;;25.04;89.08
829;BME280;396;52.558;13.188;2022-08-25T09:27:27;101522.56;;;25.04;88.24
829;BME280;396;52.558;13.188;2022-08-25T09:29:59;101519.56;;;25.16;88.35
829;BME280;396;52.558;13.188;2022-08-25T09:32:31;101534.44;;;25.34;87.14
829;BME280;396;52.558;13.188;2022-08-25T09:35:00;101528.91;;;25.34;86.63
829;BME280;396;52.558;13.188;2022-08-25T09:37:27;101528.59;;;25.43;87.30
829;BME280;396;52.558;13.188;2022-08-25T09:39:54;101526.63;;;25.44;87.15
829;BME280;396;52.558;13.188;2022-08-25T09:42:20;101513.13;;;25.42;86.50
829;BME280;396;52.558;13.188;2022-08-25T09:44:47;101516.06;;;25.56;88.11
829;BME280;396;52.558;13.188;2022-08-25T09:47:20;101509.88;;;25.74;87.41
829;BME280;396;52.558;13.188;2022-08-25T09:49:55;101516.34;;;25.85;86.43
829;BME280;396;52.558;13.188;2022-08-25T09:52:30;101513.56;;;25.81;85.67
829;BME280;396;52.558;13.188;2022-08-25T09:54:59;101511.63;;;25.89;85.21
829;BME280;396;52.558;13.188;2022-08-25T09:57:30;101505.34;;;25.96;85.44
829;BME280;396;52.558;13.188;2022-08-25T10:00:09;101508.06;;;25.88;84.07
829;BME280;396;52.558;13.188;2022-08-25T10:02:36;101507.81;;;25.67;84.15
829;BME280;396;52.558;13.188;2022-08-25T10:05:17;101496.59;;;25.94;84.50
829;BME280;396;52.558;13.188;2022-08-25T10:07:49;101502.66;;;26.06;85.88
829;BME280;396;52.558;13.188;2022-08-25T10:10:20;101505.44;;;26.10;84.46
829;BME280;396;52.558;13.188;2022-08-25T10:12:48;101498.75;;;26.14;84.21
829;BME280;396;52.558;13.188;2022-08-25T10:15:16;101490.84;;;26.20;84.02
829;BME280;396;52.558;13.188;2022-08-25T10:17:43;101478.22;;;26.33;83.91
829;BME280;396;52.558;13.188;2022-08-25T10:20:19;101469.13;;;26.36;84.55
829;BME280;396;52.558;13.188;2022-08-25T10:22:47;101472.84;;;26.55;84.83
829;BME280;396;52.558;13.188;2022-08-25T10:25:26;101476.09;;;26.71;83.50
829;BME280;396;52.558;13.188;2022-08-25T10:28:04;101484.41;;;26.67;81.05
829;BME280;396;52.558;13.188;2022-08-25T10:30:39;101485.59;;;26.66;81.35
829;BME280;396;52.558;13.188;2022-08-25T10:33:16;101480.50;;;26.79;81.97
829;BME280;396;52.558;13.188;2022-08-25T10:35:56;101480.13;;;26.91;80.23
829;BME280;396;52.558;13.188;2022-08-25T10:38:32;101469.84;;;26.99;80.61
829;BME280;396;52.558;13.188;2022-08-25T10:41:17;101471.44;;;27.04;80.50
829;BME280;396;52.558;13.188;2022-08-25T10:43:51;101467.97;;;27.14;80.89
829;BME280;396;52.558;13.188;2022-08-25T10:46:26;101464.78;;;27.26;81.20
829;BME280;396;52.558;13.188;2022-08-25T10:49:02;101462.03;;;27.37;78.91
829;BME280;396;52.558;13.188;2022-08-25T10:51:44;101462.41;;;27.28;78.57
829;BME280;396;52.558;13.188;2022-08-25T10:54:23;101457.22;;;27.16;79.11
829;BME280;396;52.558;13.188;2022-08-25T10:56:59;101452.47;;;27.20;78.53
829;BME280;396;52.558;13.188;2022-08-25T10:59:40;101458.41;;;27.22;78.13
829;BME280;396;52.558;13.188;2022-08-25T11:02:35;101454.38;;;27.05;77.54
829;BME280;396;52.558;13.188;2022-08-25T11:05:06;101451.97;;;26.97;77.33
829;BME280;396;52.558;13.188;2022-08-25T11:07:40;101443.56;;;26.82;78.14
829;BME280;396;52.558;13.188;2022-08-25T11:10:11;101453.56;;;27.01;78.84
829;BME280;396;52.558;13.188;2022-08-25T11:12:43;101442.91;;;27.17;78.79
829;BME280;396;52.558;13.188;2022-08-25T11:15:13;101446.53;;;27.39;77.41
829;BME280;396;52.558;13.188;2022-08-25T11:17:47;101450.13;;;27.58;76.70
829;BME280;396;52.558;13.188;2022-08-25T11:20:20;101445.34;;;27.62;75.92
829;BME280;396;52.558;13.188;2022-08-25T11:22:51;101434.22;;;27.62;75.53
829;BME280;396;52.558;13.188;2022-08-25T11:25:24;101440.59;;;27.95;73.81
829;BME280;396;52.558;13.188;2022-08-25T11:27:56;101433.38;;;28.26;72.79
829;BME280;396;52.558;13.188;2022-08-25T11:30:24;101437.72;;;29.32;70.13
829;BME280;396;52.558;13.188;2022-08-25T11:32:52;101439.09;;;29.65;65.97
829;BME280;396;52.558;13.188;2022-08-25T11:35:27;101442.75;;;29.52;66.75
829;BME280;396;52.558;13.188;2022-08-25T11:38:06;101445.63;;;29.45;67.15
829;BME280;396;52.558;13.188;2022-08-25T11:40:46;101440.72;;;29.63;66.36
829;BME280;396;52.558;13.188;2022-08-25T11:43:28;101437.91;;;29.67;66.91
829;BME280;396;52.558;13.188;2022-08-25T11:46:05;101440.81;;;29.49;64.58
829;BME280;396;52.558;13.188;2022-08-25T11:48:44;101421.44;;;29.20;67.55
829;BME280;396;52.558;13.188;2022-08-25T11:51:28;101431.50;;;29.07;69.80
829;BME280;396;52.558;13.188;2022-08-25T11:54:16;101430.91;;;29.37;68.75
829;BME280;396;52.558;13.188;2022-08-25T11:56:51;101417.84;;;29.23;66.73
829;BME280;396;52.558;13.188;2022-08-25T12:02:31;101411.34;;;29.89;66.09
829;BME280;396;52.558;13.188;2022-08-25T12:04:59;101403.00;;;30.92;64.02
829;BME280;396;52.558;13.188;2022-08-25T12:07:29;101409.63;;;31.79;60.03
829;BME280;396;52.558;13.188;2022-08-25T12:13:42;101399.81;;;31.16;60.83
829;BME280;396;52.558;13.188;2022-08-25T12:16:40;101396.03;;;31.54;59.67
829;BME280;396;52.558;13.188;2022-08-25T12:19:25;101397.69;;;31.24;58.40
829;BME280;396;52.558;13.188;2022-08-25T12:21:53;101385.66;;;30.39;59.44
829;BME280;396;52.558;13.188;2022-08-25T12:24:21;101391.34;;;29.94;62.04
829;BME280;396;52.558;13.188;2022-08-25T12:26:55;101388.88;;;29.62;64.75
829;BME280;396;52.558;13.188;2022-08-25T12:29:30;101375.72;;;29.97;65.69
829;BME280;396;52.558;13.188;2022-08-25T12:32:05;101383.72;;;31.48;57.97
829;BME280;396;52.558;13.188;2022-08-25T12:34:49;101388.34;;;33.01;57.21
829;BME280;396;52.558;13.188;2022-08-25T12:37:20;101378.84;;;33.93;51.19
829;BME280;396;52.558;13.188;2022-08-25T12:39:56;101385.03;;;34.58;50.91
829;BME280;396;52.558;13.188;2022-08-25T12:42:29;101383.38;;;35.12;48.25
829;BME280;396;52.558;13.188;2022-08-25T12:51:02;101368.09;;;35.60;46.37
829;BME280;396;52.558;13.188;2022-08-25T12:53:34;101372.84;;;36.07;44.17
829;BME280;396;52.558;13.188;2022-08-25T12:56:04;101376.50;;;36.61;44.74
829;BME280;396;52.558;13.188;2022-08-25T12:58:35;101376.56;;;37.10;43.85
829;BME280;396;52.558;13.188;2022-08-25T13:01:13;101369.53;;;37.15;40.56
829;BME280;396;52.558;13.188;2022-08-25T13:03:59;101366.25;;;37.26;41.98
829;BME280;396;52.558;13.188;2022-08-25T13:06:52;101361.63;;;37.96;40.86
829;BME280;396;52.558;13.188;2022-08-25T13:09:42;101357.25;;;38.47;40.51
829;BME280;396;52.558;13.188;2022-08-25T13:12:15;101364.88;;;38.22;41.06
829;BME280;396;52.558;13.188;2022-08-25T13:14:44;101349.44;;;38.23;39.74
829;BME280;396;52.558;13.188;2022-08-25T13:17:24;101351.19;;;38.30;39.22
829;BME280;396;52.558;13.188;2022-08-25T13:19:50;101348.63;;;38.41;39.37
829;BME280;396;52.558;13.188;2022-08-25T13:22:19;101342.00;;;38.53;39.65
829;BME280;396;52.558;13.188;2022-08-25T13:24:46;101341.63;;;38.70;39.54
829;BME280;396;52.558;13.188;2022-08-25T13:27:19;101348.44;;;38.96;38.30
829;BME280;396;52.558;13.188;2022-08-25T13:29:50;101330.81;;;39.16;37.54
829;BME280;396;52.558;13.188;2022-08-25T13:32:25;101334.63;;;38.47;38.99
829;BME280;396;52.558;13.188;2022-08-25T13:35:06;101328.78;;;38.50;39.36
829;BME280;396;52.558;13.188;2022-08-25T13:37:34;101329.31;;;38.40;38.90
829;BME280;396;52.558;13.188;2022-08-25T13:40:07;101321.47;;;38.34;39.94
829;BME280;396;52.558;13.188;2022-08-25T13:42:35;101329.31;;;38.40;39.57
829;BME280;396;52.558;13.188;2022-08-25T13:45:03;101320.38;;;38.32;38.78
829;BME280;396;52.558;13.188;2022-08-25T13:47:33;101319.22;;;38.29;39.85